Weather observations for the past three days for
Miami, Miami International Airport
| Date | Time (edt) | Wind (kph) | Vis. (km) | Weather | Sky Cond. | Temperature (ºC) | Relative Humidity | Wind Chill (°C) | Heat Index (°C) | Pressure | Precipitation (cm) | ||||||
|---|---|---|---|---|---|---|---|---|---|---|---|---|---|---|---|---|---|
| Air | Dwpt | 6 hour | altimeter (cm) | sea level (mb) | 1 hr | 3 hr | 6 hr | ||||||||||
| Max. | Min. | ||||||||||||||||
| 06 | 03:53 | E 11 | 16.09 | A Few Clouds | FEW020 FEW250 | 25 | 21.7 | 82% | 26 | 76.15 | 1015.1 | ||||||
| 06 | 02:53 | E 9 | 16.09 | A Few Clouds | FEW020 FEW250 | 25 | 21.7 | 82% | 26 | 76.15 | 1015.1 | ||||||
| 06 | 01:53 | E 13 | 16.09 | Partly Cloudy | FEW020 FEW080 SCT250 | 25.6 | 21.7 | 27.2 | 25.6 | 79% | 27 | 76.17 | 1015.4 | ||||
| 06 | 00:53 | E 13 | 16.09 | Partly Cloudy | FEW021 SCT080 SCT250 | 25.6 | 21.7 | 79% | 27 | 76.23 | 1016.1 | ||||||
| 05 | 23:53 | E 13 | 16.09 | A Few Clouds | FEW021 | 25.6 | 21.7 | 79% | 27 | 76.23 | 1016.1 | ||||||
| 05 | 22:53 | NE 15 | 16.09 | A Few Clouds | FEW021 | 26.1 | 21.7 | 77% | 28 | 76.2 | 1015.8 | ||||||
| 05 | 21:53 | E 20 | 16.09 | Partly Cloudy | SCT024 SCT060 SCT250 | 26.1 | 21.7 | 77% | 28 | 76.15 | 1015.3 | ||||||
| 05 | 20:53 | NE 22 G 41 | 16.09 | Mostly Cloudy | BKN026 BKN060 BKN250 | 26.1 | 21.7 | 77% | 28 | 76.12 | 1015.0 | ||||||
| 05 | 19:53 | NE 17 G 35 | 16.09 | Mostly Cloudy | BKN026 BKN050 BKN250 | 27.2 | 21.7 | 30.6 | 26.7 | 72% | 29 | 76.1 | 1014.6 | ||||
| 05 | 18:53 | E 19 | 16.09 | Mostly Cloudy | SCT034 BKN250 | 27.2 | 21.7 | 72% | 29 | 76.05 | 1013.9 | ||||||
| 05 | 17:53 | E 19 G 28 | 16.09 | Mostly Cloudy | SCT036 BKN250 | 29.4 | 21.1 | 61% | 32 | 76.05 | 1013.7 | ||||||
| 05 | 16:53 | E 17 | 16.09 | Mostly Cloudy | BKN046 BKN080 BKN250 | 28.9 | 20.6 | 61% | 31 | 76.02 | 1013.4 | ||||||
| 05 | 15:53 | E 15 | 16.09 | Mostly Cloudy | SCT030 SCT080 BKN250 | 30 | 21.1 | 59% | 33 | 76.02 | 1013.6 | ||||||
| 05 | 14:53 | E 19 | 16.09 | Mostly Cloudy | SCT030 BKN038 BKN060 BKN250 | 30 | 22.2 | 63% | 33 | 76.07 | 1014.2 | ||||||
| 05 | 13:53 | E 20 | 16.09 | Mostly Cloudy | SCT030TCU BKN250 | 29.4 | 22.2 | 31.1 | 25 | 65% | 33 | 76.1 | 1014.5 | ||||
| 05 | 12:53 | E 15 | 16.09 | Mostly Cloudy | BKN031TCU BKN050 BKN250 | 28.3 | 21.7 | 67% | 31 | 76.1 | 1014.6 | ||||||
| 05 | 11:53 | NW 11 | 16.09 | Mostly Cloudy | SCT043 BKN250 | 31.1 | 19.4 | 50% | 33 | 76.12 | 1014.9 | ||||||
| 05 | 10:53 | Calm | 16.09 | Mostly Cloudy | BKN030 BKN250 | 28.9 | 20.6 | 61% | 31 | 76.12 | 1015.0 | ||||||
| 05 | 09:53 | Vrbl 6 | 16.09 | Mostly Cloudy | SCT022 BKN250 | 27.2 | 21.7 | 72% | 29 | 76.12 | 1014.9 | ||||||
| 05 | 08:53 | N 9 | 16.09 | A Few Clouds | FEW025 FEW070 FEW250 | 26.7 | 22.2 | 76% | 29 | 76.1 | 1014.4 | ||||||
| 05 | 07:53 | Calm | 16.09 | Partly Cloudy | FEW025 FEW070 SCT250 | 25 | 22.2 | 25 | 23.3 | 85% | 26 | 76.07 | 1014.1 | ||||
| 05 | 06:53 | N 7 | 16.09 | Partly Cloudy | FEW025 SCT070 SCT250 | 23.9 | 22.2 | 90% | 23 | 76.05 | 1013.7 | ||||||
| 05 | 05:53 | N 6 | 16.09 | Partly Cloudy | FEW025 FEW060 SCT080 SCT250 | 23.3 | 21.7 | 91% | 75.97 | 1012.9 | |||||||
| 05 | 04:53 | NE 7 | 16.09 | A Few Clouds | FEW025 | 23.3 | 21.7 | 91% | 75.97 | 1012.7 | |||||||
| 05 | 03:53 | Vrbl 9 | 16.09 | A Few Clouds | FEW025 | 23.9 | 21.7 | 88% | 24 | 75.97 | 1012.9 | ||||||
| 05 | 02:53 | NE 9 | 16.09 | A Few Clouds | FEW025 | 23.9 | 21.7 | 88% | 24 | 75.97 | 1012.8 | ||||||
| 05 | 01:53 | N 9 | 16.09 | A Few Clouds | FEW028 | 23.9 | 21.7 | 25 | 23.9 | 88% | 24 | 76.02 | 1013.6 | ||||
| 05 | 00:53 | N 7 | 16.09 | Partly Cloudy | FEW028 SCT060 | 24.4 | 21.7 | 85% | 25 | 76.07 | 1014.1 | ||||||
| 04 | 23:53 | N 9 | 16.09 | Mostly Cloudy | FEW027 BKN060 | 25 | 21.1 | 79% | 26 | 76.1 | 1014.4 | ||||||
| 04 | 22:53 | NE 9 | 16.09 | Mostly Cloudy | FEW017 BKN065 BKN080 | 24.4 | 21.7 | 85% | 25 | 76.1 | 1014.4 | ||||||
| 04 | 21:53 | NE 11 | 16.09 | Mostly Cloudy | SCT016 BKN070 BKN250 | 24.4 | 21.7 | 85% | 25 | 76.1 | 1014.4 | ||||||
| 04 | 20:53 | E 19 | 16.09 | Partly Cloudy | SCT020 SCT038 SCT250 | 24.4 | 21.1 | 82% | 25 | 76.05 | 1013.9 | ||||||
| 04 | 19:53 | NE 15 | 16.09 | Overcast | SCT020 BKN030 BKN038 OVC250 | 25 | 21.7 | 27.2 | 25 | 82% | 26 | 76.02 | 1013.6 | ||||
| 04 | 18:53 | E 19 | 16.09 | Mostly Cloudy | FEW026 SCT044 SCT085 BKN250 | 26.1 | 20 | 69% | 27 | 76.02 | 1013.4 | ||||||
| 04 | 17:53 | E 20 | 16.09 | Mostly Cloudy | SCT028 BKN250 | 26.7 | 20 | 67% | 28 | 76 | 1013.0 | ||||||
| 04 | 16:53 | E 20 G 37 | 16.09 | Mostly Cloudy | SCT024 BKN250 | 26.7 | 20 | 67% | 28 | 76.02 | 1013.4 | ||||||
| 04 | 15:53 | E 24 G 41 | 16.09 | Partly Cloudy | SCT022 SCT027 | 26.7 | 20.6 | 69% | 28 | 76.05 | 1013.9 | ||||||
| 04 | 14:53 | NE 20 | 16.09 | Mostly Cloudy | FEW022 BKN030 BKN039 | 26.7 | 21.7 | 74% | 29 | 76.1 | 1014.5 | ||||||
| 04 | 13:53 | NE 17 | 16.09 | Light Rain | SCT020CB BKN030 OVC042 | 26.1 | 22.8 | 27.8 | 23.3 | 82% | 28 | 76.12 | 1015.0 | 0.03 | 0.03 | ||
| 04 | 12:53 | NE 17 | 16.09 | Mostly Cloudy | BKN021 BKN042 | 26.7 | 21.7 | 74% | 29 | 76.15 | 1015.1 | ||||||
| 04 | 11:53 | NE 7 | 16.09 | Mostly Cloudy | SCT018 SCT040 BKN075 | 27.2 | 21.1 | 69% | 29 | 76.15 | 1015.3 | ||||||
| 04 | 10:53 | N 11 | 16.09 | Overcast | BKN018 OVC038 | 25.6 | 21.1 | 76% | 27 | 76.17 | 1015.5 | ||||||
| 04 | 09:53 | N 11 | 16.09 | Mostly Cloudy | BKN013 BKN020 BKN080 | 24.4 | 21.7 | 85% | 25 | 76.15 | 1015.2 | ||||||
| 04 | 08:53 | Vrbl 7 | 16.09 | Mostly Cloudy | BKN010 BKN080 | 23.3 | 21.7 | 91% | 76.1 | 1014.5 | |||||||
| 04 | 07:53 | N 6 | 16.09 | Mostly Cloudy | FEW005 FEW017 BKN080 | 22.8 | 21.7 | 94% | 76.05 | 1013.9 | 0.08 | ||||||
| 04 | 06:53 | NW 11 | 8.05 | Fog/Mist | OVC003 | 21.7 | 21.7 | 100% | 76.05 | 1013.8 | |||||||
| 04 | 05:53 | NW 7 | 11.27 | Mostly Cloudy | SCT005 BKN012 | 22.2 | 22.2 | 100% | 76.02 | 1013.4 | |||||||
| 04 | 04:53 | Vrbl 9 | 11.27 | Overcast | BKN005 OVC015 | 23.3 | 22.8 | 97% | 76 | 1013.1 | 0.08 | ||||||
| 04 | 03:53 | N 7 | 12.87 | Overcast | SCT007 BKN010 OVC036 | 23.3 | 22.8 | 97% | 76 | 1013.0 | 0.08 | ||||||
| 04 | 02:53 | Calm | 16.09 | Mostly Cloudy | FEW015 SCT047 BKN065 | 24.4 | 22.8 | 91% | 24 | 76 | 1013.3 | ||||||
| 04 | 01:53 | Calm | 16.09 | Mostly Cloudy | FEW015 SCT047 BKN065 | 24.4 | 22.8 | 25.6 | 23.9 | 91% | 24 | 76.07 | 1014.1 | ||||
| 04 | 00:53 | Calm | 16.09 | Overcast | BKN017 OVC090 | 24.4 | 22.8 | 91% | 24 | 76.15 | 1015.3 | ||||||
| 03 | 23:53 | N 7 | 16.09 | Overcast | FEW011 SCT090 OVC110 | 24.4 | 22.2 | 88% | 25 | 76.15 | 1015.1 | ||||||
| 03 | 22:53 | N 6 | 16.09 | Overcast | FEW011 SCT090 OVC110 | 24.4 | 22.2 | 88% | 25 | 76.17 | 1015.4 | ||||||
| 03 | 21:53 | NE 6 | 16.09 | Light Rain | FEW011 SCT060 OVC110 | 24.4 | 22.2 | 88% | 25 | 76.15 | 1015.1 | ||||||
| 03 | 20:53 | NE 9 | 16.09 | Mostly Cloudy | FEW016 SCT022 BKN140 BKN250 | 25 | 22.2 | 85% | 26 | 76.1 | 1014.6 | ||||||
| 03 | 19:53 | E 13 | 16.09 | Mostly Cloudy | FEW016 SCT024 BKN090 BKN250 | 25 | 22.8 | 27.8 | 25 | 88% | 26 | 76.07 | 1014.1 | ||||
| 03 | 18:53 | NE 11 | 16.09 | Light Rain | SCT012 BKN024 OVC039 | 25.6 | 22.2 | 82% | 27 | 76.05 | 1013.9 | ||||||
| 03 | 17:53 | E 13 | 16.09 | Light Rain | BKN020 OVC041 | 25.6 | 22.2 | 82% | 27 | 76.05 | 1013.8 | ||||||
| 03 | 16:53 | E 7 | 16.09 | Overcast | BKN026 BKN036 OVC090 | 26.7 | 22.2 | 76% | 29 | 76.07 | 1014.3 | ||||||
| 03 | 15:53 | N 9 | 16.09 | Overcast | SCT024 BKN090 BKN110 OVC250 | 26.7 | 21.7 | 74% | 29 | 76.07 | 1014.2 | ||||||
| 03 | 14:53 | N 7 | 16.09 | Overcast | SCT028 SCT035 SCT065 OVC250 | 27.2 | 21.1 | 69% | 29 | 76.15 | 1015.1 | ||||||
| 03 | 13:53 | N 6 | 16.09 | Overcast | SCT023 BKN065 BKN110 OVC200 | 27.2 | 21.1 | 27.8 | 22.2 | 69% | 29 | 76.2 | 1015.7 | 0.23 | |||
| 03 | 12:53 | Vrbl 6 | 16.09 | Overcast | SCT017 BKN090 OVC200 | 26.1 | 22.2 | 79% | 28 | 76.23 | 1016.1 | ||||||
| 03 | 11:53 | NE 7 | 16.09 | Overcast | BKN014 BKN100 OVC200 | 25.6 | 21.7 | 79% | 27 | 76.23 | 1016.2 | ||||||
| 03 | 10:53 | Vrbl 6 | 16.09 | Overcast | FEW010 SCT028 BKN080 OVC200 | 25 | 22.2 | 85% | 26 | 76.23 | 1016.2 | 0.23 | |||||
| 03 | 09:53 | NE 11 | 16.09 | Mostly Cloudy | FEW026 BKN090 BKN200 | 23.3 | 22.2 | 94% | 76.2 | 1015.9 | |||||||
| 03 | 08:53 | N 9 | 12.87 | Light Rain | FEW010 OVC024 | 22.2 | 21.1 | 94% | 76.2 | 1016.0 | 0.23 | ||||||
| 03 | 07:53 | N 13 | 8.05 | Thunderstorm Light Rain | BKN020CB BKN026 OVC050 | 22.2 | 21.7 | 26.7 | 22.2 | 97% | 76.15 | 1015.1 | 1.45 | 2.03 | |||
| 03 | 06:53 | Calm | 16.09 | Overcast | BKN023 BKN030 OVC041 | 23.3 | 22.2 | 94% | 76.05 | 1013.7 | 0.05 | ||||||
| 03 | 05:53 | N 13 | 8.05 | Thunderstorm Rain | FEW010CB OVC020 | 23.3 | 22.8 | 97% | 76 | 1013.2 | 0.53 | ||||||
| 03 | 04:53 | W 6 | 16.09 | Mostly Cloudy | FEW050 SCT090 BKN250 | 26.7 | 22.2 | 76% | 29 | 76.02 | 1013.4 | ||||||
| Date | Time (edt) | Wind (kph) | Vis. (km) | Weather | Sky Cond. | Air | Dwpt | Max. | Min. | Relative Humidity | Wind Chill (°C) | Heat Index (°C) | altimeter (cm) | sea level (mb) | 1 hr | 3 hr | 6 hr |
| 6 hour | |||||||||||||||||
| Temperature (ºC) | Pressure | Precipitation (cm) | |||||||||||||||